createdAt,value
2022-08-26T00:05:06.966Z,1007.54
2022-08-26T00:11:27.176Z,1007.56
2022-08-26T00:17:49.975Z,1007.64
2022-08-26T00:24:09.970Z,1007.72
2022-08-26T00:30:32.977Z,1007.82
2022-08-26T00:36:52.970Z,1007.8
2022-08-26T00:43:15.982Z,1007.86
2022-08-26T00:49:35.971Z,1007.9
2022-08-26T00:55:58.975Z,1007.9
2022-08-26T01:02:20.401Z,1007.94
2022-08-26T01:08:41.970Z,1007.94
2022-08-26T01:15:02.060Z,1008.06
2022-08-26T01:21:24.977Z,1008.14
2022-08-26T01:27:44.979Z,1008.18
2022-08-26T01:34:07.971Z,1008.24
2022-08-26T01:40:28.038Z,1008.32
2022-08-26T01:46:50.991Z,1008.36
2022-08-26T01:53:11.178Z,1008.43
2022-08-26T01:59:33.981Z,1008.45
2022-08-26T02:05:53.971Z,1008.47
2022-08-26T02:12:16.990Z,1008.53
2022-08-26T02:18:36.969Z,1008.59
2022-08-26T02:24:59.984Z,1008.61
2022-08-26T02:31:20.048Z,1008.65
2022-08-26T02:37:42.971Z,1008.65
2022-08-26T02:44:02.984Z,1008.71
2022-08-26T02:50:25.969Z,1008.69
2022-08-26T02:56:45.981Z,1008.69
2022-08-26T03:03:09.258Z,1008.71
2022-08-26T03:09:28.982Z,1008.69
2022-08-26T03:15:52.016Z,1008.67
2022-08-26T03:22:11.973Z,1008.65
2022-08-26T03:28:34.974Z,1008.69
2022-08-26T03:34:54.967Z,1008.71
2022-08-26T03:41:17.984Z,1008.73
2022-08-26T03:47:38.210Z,1008.73
2022-08-26T03:54:00.990Z,1008.69
2022-08-26T04:00:20.977Z,1008.71
2022-08-26T04:06:44.643Z,1008.75
2022-08-26T04:29:10.955Z,1008.75
2022-08-26T04:35:33.963Z,1008.75
2022-08-26T04:41:53.983Z,1008.73
2022-08-26T04:48:17.011Z,1008.77
2022-08-26T04:54:36.984Z,1008.81
2022-08-26T05:00:59.975Z,1008.84
2022-08-26T05:07:19.972Z,1008.88
2022-08-26T05:13:42.987Z,1008.9
2022-08-26T05:20:02.970Z,1008.92
2022-08-26T05:26:25.983Z,1008.94
2022-08-26T05:32:45.988Z,1008.96
2022-08-26T05:39:10.475Z,1008.96
2022-08-26T05:45:28.969Z,1008.98
2022-08-26T05:51:51.977Z,1009
2022-08-26T05:58:11.990Z,1009.02
2022-08-26T06:04:34.982Z,1009.08
2022-08-26T06:10:54.979Z,1009.14
2022-08-26T06:17:17.982Z,1009.16
2022-08-26T06:23:37.979Z,1009.16
2022-08-26T06:30:00.984Z,1009.2
2022-08-26T06:36:21.032Z,1009.2
2022-08-26T06:42:43.986Z,1009.18
2022-08-26T06:49:04.001Z,1009.24
2022-08-26T06:55:27.226Z,1009.28
2022-08-26T07:01:47.095Z,1009.3
2022-08-26T07:08:09.986Z,1009.3
2022-08-26T07:14:29.987Z,1009.31
2022-08-26T07:20:53.003Z,1009.31
2022-08-26T07:27:12.981Z,1009.39
2022-08-26T07:33:35.990Z,1009.39
2022-08-26T07:39:56.014Z,1009.43
2022-08-26T07:46:20.701Z,1009.51
2022-08-26T07:52:38.997Z,1009.55
2022-08-26T07:59:01.981Z,1009.59
2022-08-26T08:05:22.032Z,1009.59
2022-08-26T08:11:45.022Z,1009.59
2022-08-26T08:18:04.979Z,1009.61
2022-08-26T08:24:28.002Z,1009.63
2022-08-26T08:30:48.002Z,1009.67
2022-08-26T08:37:11.035Z,1009.69
2022-08-26T08:43:30.977Z,1009.69
2022-08-26T08:49:53.971Z,1009.69
2022-08-26T08:56:13.981Z,1009.71
2022-08-26T09:02:37.051Z,1009.67
2022-08-26T09:08:56.985Z,1009.65
2022-08-26T09:15:19.974Z,1009.69
2022-08-26T09:21:39.974Z,1009.71
2022-08-26T09:28:03.030Z,1009.71
2022-08-26T09:34:22.976Z,1009.73
2022-08-26T09:40:45.995Z,1009.69
2022-08-26T09:47:05.989Z,1009.73
2022-08-26T09:53:30.320Z,1009.73
2022-08-26T09:59:48.987Z,1009.75
2022-08-26T10:22:36.995Z,1009.69
2022-08-26T10:28:59.976Z,1009.67
2022-08-26T10:35:20.107Z,1009.63
2022-08-26T10:41:43.179Z,1009.61
2022-08-26T10:48:03.104Z,1009.63
2022-08-26T10:54:25.978Z,1009.65
2022-08-26T11:00:46.301Z,1009.63
2022-08-26T11:07:08.988Z,1009.59
2022-08-26T11:13:28.977Z,1009.53
2022-08-26T11:20:00.560Z,1009.53
2022-08-26T11:26:11.982Z,1009.51
2022-08-26T11:32:34.985Z,1009.47
2022-08-26T11:38:55.044Z,1009.47
2022-08-26T11:45:17.977Z,1009.47
2022-08-26T11:51:40.168Z,1009.45
2022-08-26T11:58:01.004Z,1009.43
2022-08-26T12:04:21.095Z,1009.43
2022-08-26T12:10:44.160Z,1009.41
2022-08-26T12:17:03.984Z,1009.35
2022-08-26T12:23:26.980Z,1009.35
2022-08-26T12:29:48.548Z,1009.35
2022-08-26T12:36:10.007Z,1009.37
2022-08-26T12:42:29.991Z,1009.31
2022-08-26T12:48:52.979Z,1009.3
2022-08-26T12:55:12.987Z,1009.24
2022-08-26T13:01:36.089Z,1009.24
2022-08-26T13:07:57.123Z,1009.24
2022-08-26T13:14:21.281Z,1009.18
2022-08-26T13:20:39.986Z,1009.18
2022-08-26T13:27:02.999Z,1009.16
2022-08-26T13:33:22.981Z,1009.1
2022-08-26T13:39:45.979Z,1009.04
2022-08-26T13:46:05.981Z,1008.98
2022-08-26T13:52:30.424Z,1008.94
2022-08-26T13:58:49.530Z,1008.98
2022-08-26T14:05:12.239Z,1009
2022-08-26T14:11:34.794Z,1008.98
2022-08-26T14:17:55.017Z,1009
2022-08-26T14:24:15.014Z,1008.96
2022-08-26T14:30:38.119Z,1008.86
2022-08-26T14:36:57.979Z,1008.84
2022-08-26T14:43:20.990Z,1008.84
2022-08-26T14:49:41.196Z,1008.88
2022-08-26T14:56:03.983Z,1008.86
2022-08-26T15:02:27.830Z,1008.92
2022-08-26T15:08:46.974Z,1008.94
2022-08-26T15:15:06.997Z,1008.9
2022-08-26T15:21:29.982Z,1008.9
2022-08-26T15:27:49.997Z,1008.86
2022-08-26T15:34:16.303Z,1008.79
2022-08-26T15:40:33.003Z,1008.75
2022-08-26T16:11:11.982Z,1008.71
2022-08-26T16:17:34.994Z,1008.67
2022-08-26T16:23:54.979Z,1008.65
2022-08-26T16:30:18.198Z,1008.67
2022-08-26T16:36:37.988Z,1008.67
2022-08-26T16:43:00.972Z,1008.69
2022-08-26T16:49:21.290Z,1008.75
2022-08-26T16:55:44.050Z,1008.79
2022-08-26T17:02:04.107Z,1008.83
2022-08-26T17:08:28.583Z,1008.92
2022-08-26T17:14:46.985Z,1008.98
2022-08-26T17:21:09.977Z,1008.96
2022-08-26T17:27:29.974Z,1009.06
2022-08-26T17:33:53.280Z,1009.1
2022-08-26T17:40:13.062Z,1009.12
2022-08-26T17:46:37.819Z,1009.16
2022-08-26T17:52:55.979Z,1009.18
2022-08-26T17:59:19.005Z,1009.16
2022-08-26T18:05:38.976Z,1009.18
2022-08-26T18:12:01.988Z,1009.16
2022-08-26T18:18:22.007Z,1009.2
2022-08-26T18:24:52.858Z,1009.22
2022-08-26T18:31:05.072Z,1009.24
2022-08-26T18:37:29.507Z,1009.22
2022-08-26T18:43:48.087Z,1009.26
2022-08-26T18:50:10.968Z,1009.3
2022-08-26T18:56:30.968Z,1009.37
2022-08-26T19:02:53.965Z,1009.41
2022-08-26T19:09:14.568Z,1009.47
2022-08-26T19:15:37.114Z,1009.49
2022-08-26T19:21:56.975Z,1009.51
2022-08-26T19:28:20.254Z,1009.51
2022-08-26T19:34:39.980Z,1009.49
2022-08-26T19:41:03.274Z,1009.47
2022-08-26T19:47:22.969Z,1009.47
2022-08-26T19:53:46.076Z,1009.45
2022-08-26T20:00:05.991Z,1009.47
2022-08-26T20:06:29.020Z,1009.49
2022-08-26T20:12:48.964Z,1009.49
2022-08-26T20:19:11.981Z,1009.53
2022-08-26T20:25:32.042Z,1009.57
2022-08-26T20:31:55.245Z,1009.55
2022-08-26T20:38:15.854Z,1009.59
2022-08-26T20:44:37.978Z,1009.59
2022-08-26T20:50:57.992Z,1009.65
2022-08-26T20:57:20.973Z,1009.67
2022-08-26T21:03:41.076Z,1009.73
2022-08-26T21:25:35.966Z,1009.78
2022-08-26T21:31:59.040Z,1009.82
2022-08-26T21:38:18.981Z,1009.86
2022-08-26T21:44:42.009Z,1009.84
2022-08-26T21:51:02.004Z,1009.88
2022-08-26T21:57:24.992Z,1009.88
2022-08-26T22:20:21.971Z,1009.82
2022-08-26T22:26:42.008Z,1009.86
2022-08-26T22:33:05.017Z,1009.9
2022-08-26T22:39:25.046Z,1009.94
2022-08-26T22:45:48.069Z,1009.98
2022-08-26T22:52:07.977Z,1010.02
2022-08-26T22:58:31.092Z,1010
2022-08-26T23:04:51.018Z,1010.02
2022-08-26T23:11:13.981Z,1009.98
2022-08-26T23:17:33.993Z,1009.94
2022-08-26T23:23:57.012Z,1010
2022-08-26T23:30:16.987Z,1010.04
2022-08-26T23:36:39.978Z,1010.06
2022-08-26T23:42:59.974Z,1010.06
2022-08-26T23:49:22.991Z,1010.12
2022-08-26T23:55:42.986Z,1010.14
